sensor_id;sensor_type;location;lat;lon;timestamp;P1;durP1;ratioP1;P2;durP2;ratioP2
13592;SDS011;6867;50.998;4.250;2022-12-05T00:00:08;41.63;;;19.83;;
13592;SDS011;6867;50.998;4.250;2022-12-05T00:02:35;40.37;;;20.03;;
13592;SDS011;6867;50.998;4.250;2022-12-05T00:05:02;41.57;;;18.83;;
13592;SDS011;6867;50.998;4.250;2022-12-05T00:07:30;46.80;;;20.30;;
13592;SDS011;6867;50.998;4.250;2022-12-05T00:09:57;40.00;;;18.73;;
13592;SDS011;6867;50.998;4.250;2022-12-05T00:12:24;51.83;;;20.30;;
13592;SDS011;6867;50.998;4.250;2022-12-05T00:14:51;46.03;;;20.30;;
13592;SDS011;6867;50.998;4.250;2022-12-05T00:17:17;44.33;;;18.53;;
13592;SDS011;6867;50.998;4.250;2022-12-05T00:19:44;42.63;;;19.20;;
13592;SDS011;6867;50.998;4.250;2022-12-05T00:22:11;51.07;;;20.30;;
13592;SDS011;6867;50.998;4.250;2022-12-05T00:24:39;40.33;;;19.37;;
13592;SDS011;6867;50.998;4.250;2022-12-05T00:27:05;45.60;;;18.80;;
13592;SDS011;6867;50.998;4.250;2022-12-05T00:29:32;46.77;;;19.50;;
13592;SDS011;6867;50.998;4.250;2022-12-05T00:31:59;43.87;;;19.20;;
13592;SDS011;6867;50.998;4.250;2022-12-05T00:34:26;50.70;;;20.63;;
13592;SDS011;6867;50.998;4.250;2022-12-05T00:36:52;43.13;;;18.57;;
13592;SDS011;6867;50.998;4.250;2022-12-05T00:39:19;45.77;;;20.37;;
13592;SDS011;6867;50.998;4.250;2022-12-05T00:41:47;47.87;;;18.47;;
13592;SDS011;6867;50.998;4.250;2022-12-05T00:44:14;41.20;;;17.83;;
13592;SDS011;6867;50.998;4.250;2022-12-05T00:46:40;40.17;;;19.50;;
13592;SDS011;6867;50.998;4.250;2022-12-05T00:49:07;45.87;;;19.63;;
13592;SDS011;6867;50.998;4.250;2022-12-05T00:51:36;36.47;;;18.30;;
13592;SDS011;6867;50.998;4.250;2022-12-05T00:54:04;43.13;;;19.27;;
13592;SDS011;6867;50.998;4.250;2022-12-05T00:56:32;48.87;;;19.37;;
13592;SDS011;6867;50.998;4.250;2022-12-05T00:59:00;43.93;;;19.20;;
13592;SDS011;6867;50.998;4.250;2022-12-05T01:01:29;42.17;;;19.03;;
13592;SDS011;6867;50.998;4.250;2022-12-05T01:03:59;46.23;;;19.73;;
13592;SDS011;6867;50.998;4.250;2022-12-05T01:06:28;43.37;;;20.23;;
13592;SDS011;6867;50.998;4.250;2022-12-05T01:08:55;39.87;;;17.80;;
13592;SDS011;6867;50.998;4.250;2022-12-05T01:11:23;43.10;;;17.47;;
13592;SDS011;6867;50.998;4.250;2022-12-05T01:13:51;38.67;;;18.83;;
13592;SDS011;6867;50.998;4.250;2022-12-05T01:16:21;43.63;;;18.23;;
13592;SDS011;6867;50.998;4.250;2022-12-05T01:18:49;43.47;;;19.13;;
13592;SDS011;6867;50.998;4.250;2022-12-05T01:21:16;42.33;;;17.53;;
13592;SDS011;6867;50.998;4.250;2022-12-05T01:23:43;39.30;;;18.60;;
13592;SDS011;6867;50.998;4.250;2022-12-05T01:26:11;34.63;;;17.93;;
13592;SDS011;6867;50.998;4.250;2022-12-05T01:28:39;44.03;;;19.67;;
13592;SDS011;6867;50.998;4.250;2022-12-05T01:31:07;45.67;;;19.23;;
13592;SDS011;6867;50.998;4.250;2022-12-05T01:33:49;39.00;;;17.97;;
13592;SDS011;6867;50.998;4.250;2022-12-05T01:36:16;38.07;;;17.10;;
13592;SDS011;6867;50.998;4.250;2022-12-05T01:38:44;31.20;;;15.63;;
13592;SDS011;6867;50.998;4.250;2022-12-05T01:41:12;36.10;;;17.77;;
13592;SDS011;6867;50.998;4.250;2022-12-05T01:43:54;41.33;;;18.53;;
13592;SDS011;6867;50.998;4.250;2022-12-05T01:46:22;38.70;;;17.57;;
13592;SDS011;6867;50.998;4.250;2022-12-05T01:48:51;35.17;;;17.93;;
13592;SDS011;6867;50.998;4.250;2022-12-05T01:51:21;38.57;;;16.10;;
13592;SDS011;6867;50.998;4.250;2022-12-05T01:53:48;44.73;;;20.00;;
13592;SDS011;6867;50.998;4.250;2022-12-05T01:56:15;40.57;;;17.83;;
13592;SDS011;6867;50.998;4.250;2022-12-05T01:58:43;45.40;;;19.37;;
13592;SDS011;6867;50.998;4.250;2022-12-05T02:01:11;42.37;;;17.73;;
13592;SDS011;6867;50.998;4.250;2022-12-05T02:03:40;37.07;;;17.13;;
13592;SDS011;6867;50.998;4.250;2022-12-05T02:06:10;39.17;;;17.77;;
13592;SDS011;6867;50.998;4.250;2022-12-05T02:08:38;42.90;;;18.57;;
13592;SDS011;6867;50.998;4.250;2022-12-05T02:11:06;48.80;;;21.40;;
13592;SDS011;6867;50.998;4.250;2022-12-05T02:13:38;46.47;;;18.47;;
13592;SDS011;6867;50.998;4.250;2022-12-05T02:16:19;37.37;;;17.97;;
13592;SDS011;6867;50.998;4.250;2022-12-05T02:18:55;43.40;;;17.60;;
13592;SDS011;6867;50.998;4.250;2022-12-05T02:21:39;40.67;;;17.47;;
13592;SDS011;6867;50.998;4.250;2022-12-05T02:24:28;37.23;;;16.93;;
13592;SDS011;6867;50.998;4.250;2022-12-05T02:27:19;34.40;;;17.40;;
13592;SDS011;6867;50.998;4.250;2022-12-05T02:30:02;39.37;;;18.50;;
13592;SDS011;6867;50.998;4.250;2022-12-05T02:32:37;44.23;;;17.43;;
13592;SDS011;6867;50.998;4.250;2022-12-05T02:35:21;33.90;;;15.97;;
13592;SDS011;6867;50.998;4.250;2022-12-05T02:37:58;39.13;;;18.23;;
13592;SDS011;6867;50.998;4.250;2022-12-05T02:40:38;36.37;;;17.13;;
13592;SDS011;6867;50.998;4.250;2022-12-05T02:43:10;44.00;;;18.23;;
13592;SDS011;6867;50.998;4.250;2022-12-05T02:45:42;36.37;;;16.93;;
13592;SDS011;6867;50.998;4.250;2022-12-05T02:48:13;46.87;;;18.67;;
13592;SDS011;6867;50.998;4.250;2022-12-05T02:50:43;42.97;;;17.53;;
13592;SDS011;6867;50.998;4.250;2022-12-05T02:53:13;44.10;;;17.80;;
13592;SDS011;6867;50.998;4.250;2022-12-05T02:55:42;42.37;;;18.10;;
13592;SDS011;6867;50.998;4.250;2022-12-05T02:58:12;36.13;;;17.57;;
13592;SDS011;6867;50.998;4.250;2022-12-05T03:00:48;39.07;;;16.27;;
13592;SDS011;6867;50.998;4.250;2022-12-05T03:03:18;38.50;;;16.73;;
13592;SDS011;6867;50.998;4.250;2022-12-05T03:05:48;37.70;;;17.33;;
13592;SDS011;6867;50.998;4.250;2022-12-05T03:08:22;42.67;;;17.47;;
13592;SDS011;6867;50.998;4.250;2022-12-05T03:10:52;38.53;;;17.23;;
13592;SDS011;6867;50.998;4.250;2022-12-05T03:13:23;44.40;;;18.80;;
13592;SDS011;6867;50.998;4.250;2022-12-05T03:15:54;52.00;;;19.60;;
13592;SDS011;6867;50.998;4.250;2022-12-05T03:18:25;40.43;;;17.80;;
13592;SDS011;6867;50.998;4.250;2022-12-05T03:20:56;33.93;;;15.90;;
13592;SDS011;6867;50.998;4.250;2022-12-05T03:23:28;39.70;;;18.17;;
13592;SDS011;6867;50.998;4.250;2022-12-05T03:26:00;40.70;;;18.50;;
13592;SDS011;6867;50.998;4.250;2022-12-05T03:28:38;34.03;;;17.10;;
13592;SDS011;6867;50.998;4.250;2022-12-05T03:31:17;37.23;;;17.60;;
13592;SDS011;6867;50.998;4.250;2022-12-05T03:33:49;40.70;;;17.80;;
13592;SDS011;6867;50.998;4.250;2022-12-05T03:36:25;40.70;;;18.53;;
13592;SDS011;6867;50.998;4.250;2022-12-05T03:39:00;45.00;;;19.37;;
13592;SDS011;6867;50.998;4.250;2022-12-05T03:41:31;45.27;;;18.93;;
13592;SDS011;6867;50.998;4.250;2022-12-05T03:44:06;39.23;;;18.60;;
13592;SDS011;6867;50.998;4.250;2022-12-05T03:46:40;40.03;;;17.90;;
13592;SDS011;6867;50.998;4.250;2022-12-05T03:49:14;37.77;;;17.67;;
13592;SDS011;6867;50.998;4.250;2022-12-05T03:51:48;47.20;;;18.87;;
13592;SDS011;6867;50.998;4.250;2022-12-05T03:54:20;44.77;;;18.50;;
13592;SDS011;6867;50.998;4.250;2022-12-05T03:56:51;36.07;;;18.27;;
13592;SDS011;6867;50.998;4.250;2022-12-05T03:59:26;43.30;;;19.17;;
13592;SDS011;6867;50.998;4.250;2022-12-05T04:01:59;40.23;;;18.40;;
13592;SDS011;6867;50.998;4.250;2022-12-05T04:04:30;39.27;;;17.93;;
13592;SDS011;6867;50.998;4.250;2022-12-05T04:07:02;38.17;;;16.83;;
13592;SDS011;6867;50.998;4.250;2022-12-05T04:09:34;37.83;;;16.90;;
13592;SDS011;6867;50.998;4.250;2022-12-05T04:12:06;37.10;;;17.27;;
13592;SDS011;6867;50.998;4.250;2022-12-05T04:14:36;43.63;;;17.93;;
13592;SDS011;6867;50.998;4.250;2022-12-05T04:17:09;39.40;;;18.27;;
13592;SDS011;6867;50.998;4.250;2022-12-05T04:19:41;36.90;;;17.53;;
13592;SDS011;6867;50.998;4.250;2022-12-05T04:22:29;48.43;;;18.10;;
13592;SDS011;6867;50.998;4.250;2022-12-05T04:24:57;46.47;;;18.43;;
13592;SDS011;6867;50.998;4.250;2022-12-05T04:27:47;39.07;;;17.57;;
13592;SDS011;6867;50.998;4.250;2022-12-05T04:30:19;45.73;;;18.93;;
13592;SDS011;6867;50.998;4.250;2022-12-05T04:32:50;44.00;;;18.93;;
13592;SDS011;6867;50.998;4.250;2022-12-05T04:35:26;37.07;;;17.80;;
13592;SDS011;6867;50.998;4.250;2022-12-05T04:37:57;40.93;;;17.27;;
13592;SDS011;6867;50.998;4.250;2022-12-05T04:40:28;42.03;;;17.80;;
13592;SDS011;6867;50.998;4.250;2022-12-05T04:43:00;42.87;;;18.23;;
13592;SDS011;6867;50.998;4.250;2022-12-05T04:45:28;41.17;;;17.93;;
13592;SDS011;6867;50.998;4.250;2022-12-05T04:47:59;35.90;;;17.53;;
13592;SDS011;6867;50.998;4.250;2022-12-05T04:50:30;45.20;;;19.20;;
13592;SDS011;6867;50.998;4.250;2022-12-05T04:52:58;39.70;;;18.23;;
13592;SDS011;6867;50.998;4.250;2022-12-05T04:55:27;38.30;;;17.50;;
13592;SDS011;6867;50.998;4.250;2022-12-05T04:58:00;38.80;;;18.30;;
13592;SDS011;6867;50.998;4.250;2022-12-05T05:00:32;35.47;;;16.30;;
13592;SDS011;6867;50.998;4.250;2022-12-05T05:03:07;42.10;;;17.50;;
13592;SDS011;6867;50.998;4.250;2022-12-05T05:05:38;39.97;;;17.40;;
13592;SDS011;6867;50.998;4.250;2022-12-05T05:08:14;39.70;;;18.47;;
13592;SDS011;6867;50.998;4.250;2022-12-05T05:10:44;42.93;;;18.77;;
13592;SDS011;6867;50.998;4.250;2022-12-05T05:13:20;41.03;;;17.77;;
13592;SDS011;6867;50.998;4.250;2022-12-05T05:15:46;38.80;;;17.77;;
13592;SDS011;6867;50.998;4.250;2022-12-05T05:18:14;43.57;;;19.50;;
13592;SDS011;6867;50.998;4.250;2022-12-05T05:20:41;41.33;;;17.97;;
13592;SDS011;6867;50.998;4.250;2022-12-05T05:23:08;43.20;;;19.43;;
13592;SDS011;6867;50.998;4.250;2022-12-05T05:25:34;44.07;;;18.97;;
13592;SDS011;6867;50.998;4.250;2022-12-05T05:28:01;41.23;;;18.73;;
13592;SDS011;6867;50.998;4.250;2022-12-05T05:30:28;37.83;;;17.73;;
13592;SDS011;6867;50.998;4.250;2022-12-05T05:32:54;39.67;;;18.80;;
13592;SDS011;6867;50.998;4.250;2022-12-05T05:35:22;40.10;;;18.73;;
13592;SDS011;6867;50.998;4.250;2022-12-05T05:37:49;46.87;;;19.50;;
13592;SDS011;6867;50.998;4.250;2022-12-05T05:40:16;51.13;;;19.83;;
13592;SDS011;6867;50.998;4.250;2022-12-05T05:42:43;42.37;;;18.60;;
13592;SDS011;6867;50.998;4.250;2022-12-05T05:45:11;46.07;;;19.57;;
13592;SDS011;6867;50.998;4.250;2022-12-05T05:47:38;44.03;;;18.20;;
13592;SDS011;6867;50.998;4.250;2022-12-05T05:50:05;41.83;;;19.20;;
13592;SDS011;6867;50.998;4.250;2022-12-05T05:52:34;45.23;;;18.73;;
13592;SDS011;6867;50.998;4.250;2022-12-05T05:55:02;38.83;;;17.00;;
13592;SDS011;6867;50.998;4.250;2022-12-05T05:57:31;40.13;;;18.53;;
13592;SDS011;6867;50.998;4.250;2022-12-05T05:59:57;38.23;;;18.23;;
13592;SDS011;6867;50.998;4.250;2022-12-05T06:02:24;39.83;;;18.23;;
13592;SDS011;6867;50.998;4.250;2022-12-05T06:04:51;38.03;;;17.43;;
13592;SDS011;6867;50.998;4.250;2022-12-05T06:07:17;41.47;;;20.30;;
13592;SDS011;6867;50.998;4.250;2022-12-05T06:09:45;45.90;;;19.57;;
13592;SDS011;6867;50.998;4.250;2022-12-05T06:12:12;44.80;;;18.17;;
13592;SDS011;6867;50.998;4.250;2022-12-05T06:14:39;45.70;;;20.33;;
13592;SDS011;6867;50.998;4.250;2022-12-05T06:17:05;40.27;;;17.40;;
13592;SDS011;6867;50.998;4.250;2022-12-05T06:19:32;42.17;;;18.87;;
13592;SDS011;6867;50.998;4.250;2022-12-05T06:21:58;44.63;;;19.60;;
13592;SDS011;6867;50.998;4.250;2022-12-05T06:24:25;43.70;;;18.97;;
13592;SDS011;6867;50.998;4.250;2022-12-05T06:26:53;38.37;;;18.60;;
13592;SDS011;6867;50.998;4.250;2022-12-05T06:29:20;42.43;;;20.50;;
13592;SDS011;6867;50.998;4.250;2022-12-05T06:31:47;48.93;;;19.80;;
13592;SDS011;6867;50.998;4.250;2022-12-05T06:34:14;43.73;;;19.37;;
13592;SDS011;6867;50.998;4.250;2022-12-05T06:36:41;46.00;;;19.47;;
13592;SDS011;6867;50.998;4.250;2022-12-05T06:39:07;47.97;;;19.53;;
13592;SDS011;6867;50.998;4.250;2022-12-05T06:41:34;41.07;;;18.57;;
13592;SDS011;6867;50.998;4.250;2022-12-05T06:44:02;43.50;;;20.23;;
13592;SDS011;6867;50.998;4.250;2022-12-05T06:46:29;45.83;;;19.53;;
13592;SDS011;6867;50.998;4.250;2022-12-05T06:48:56;37.27;;;17.10;;
13592;SDS011;6867;50.998;4.250;2022-12-05T06:51:23;44.30;;;19.60;;
13592;SDS011;6867;50.998;4.250;2022-12-05T06:53:50;43.00;;;18.47;;
13592;SDS011;6867;50.998;4.250;2022-12-05T06:56:18;44.17;;;18.60;;
13592;SDS011;6867;50.998;4.250;2022-12-05T06:58:45;39.27;;;18.27;;
13592;SDS011;6867;50.998;4.250;2022-12-05T07:01:15;40.27;;;17.93;;
13592;SDS011;6867;50.998;4.250;2022-12-05T07:04:01;42.27;;;19.37;;
13592;SDS011;6867;50.998;4.250;2022-12-05T07:06:28;47.10;;;21.60;;
13592;SDS011;6867;50.998;4.250;2022-12-05T07:08:55;48.90;;;21.47;;
13592;SDS011;6867;50.998;4.250;2022-12-05T07:11:21;43.33;;;19.47;;
13592;SDS011;6867;50.998;4.250;2022-12-05T07:13:48;45.63;;;19.70;;
13592;SDS011;6867;50.998;4.250;2022-12-05T07:16:16;54.30;;;20.13;;
13592;SDS011;6867;50.998;4.250;2022-12-05T07:18:43;41.37;;;17.90;;
13592;SDS011;6867;50.998;4.250;2022-12-05T07:21:10;39.33;;;18.30;;
13592;SDS011;6867;50.998;4.250;2022-12-05T07:23:39;44.07;;;18.50;;
13592;SDS011;6867;50.998;4.250;2022-12-05T07:26:07;47.47;;;19.93;;
13592;SDS011;6867;50.998;4.250;2022-12-05T07:28:35;38.70;;;18.50;;
13592;SDS011;6867;50.998;4.250;2022-12-05T07:31:02;44.90;;;20.13;;
13592;SDS011;6867;50.998;4.250;2022-12-05T07:33:31;41.50;;;18.83;;
13592;SDS011;6867;50.998;4.250;2022-12-05T07:35:59;40.80;;;19.90;;
13592;SDS011;6867;50.998;4.250;2022-12-05T07:38:26;45.33;;;21.23;;
13592;SDS011;6867;50.998;4.250;2022-12-05T07:40:53;43.37;;;20.40;;
13592;SDS011;6867;50.998;4.250;2022-12-05T07:43:20;45.23;;;19.50;;
13592;SDS011;6867;50.998;4.250;2022-12-05T07:45:47;43.67;;;19.53;;
13592;SDS011;6867;50.998;4.250;2022-12-05T07:48:13;49.37;;;21.40;;
13592;SDS011;6867;50.998;4.250;2022-12-05T07:50:41;41.77;;;20.60;;
13592;SDS011;6867;50.998;4.250;2022-12-05T07:53:08;48.50;;;20.83;;
13592;SDS011;6867;50.998;4.250;2022-12-05T07:55:36;49.10;;;21.60;;
13592;SDS011;6867;50.998;4.250;2022-12-05T07:58:03;48.50;;;19.70;;
13592;SDS011;6867;50.998;4.250;2022-12-05T08:00:29;45.53;;;19.30;;
13592;SDS011;6867;50.998;4.250;2022-12-05T08:02:56;49.10;;;20.60;;
13592;SDS011;6867;50.998;4.250;2022-12-05T08:05:22;48.90;;;20.83;;
13592;SDS011;6867;50.998;4.250;2022-12-05T08:07:50;52.60;;;21.73;;
13592;SDS011;6867;50.998;4.250;2022-12-05T08:10:17;42.87;;;20.17;;
13592;SDS011;6867;50.998;4.250;2022-12-05T08:12:44;48.93;;;20.77;;
13592;SDS011;6867;50.998;4.250;2022-12-05T08:15:10;45.07;;;21.23;;
13592;SDS011;6867;50.998;4.250;2022-12-05T08:17:37;48.00;;;21.50;;
13592;SDS011;6867;50.998;4.250;2022-12-05T08:20:04;45.17;;;21.57;;
13592;SDS011;6867;50.998;4.250;2022-12-05T08:22:32;49.00;;;21.10;;
13592;SDS011;6867;50.998;4.250;2022-12-05T08:25:00;44.07;;;21.27;;
13592;SDS011;6867;50.998;4.250;2022-12-05T08:27:26;43.30;;;19.80;;
13592;SDS011;6867;50.998;4.250;2022-12-05T08:29:53;45.60;;;19.83;;
13592;SDS011;6867;50.998;4.250;2022-12-05T08:32:20;44.73;;;19.50;;
13592;SDS011;6867;50.998;4.250;2022-12-05T08:34:47;38.93;;;20.03;;
13592;SDS011;6867;50.998;4.250;2022-12-05T08:37:13;47.17;;;21.50;;
13592;SDS011;6867;50.998;4.250;2022-12-05T08:39:40;45.37;;;20.90;;
13592;SDS011;6867;50.998;4.250;2022-12-05T08:42:08;47.40;;;19.90;;
13592;SDS011;6867;50.998;4.250;2022-12-05T08:44:35;43.33;;;20.53;;
13592;SDS011;6867;50.998;4.250;2022-12-05T08:47:01;46.70;;;21.53;;
13592;SDS011;6867;50.998;4.250;2022-12-05T08:49:28;42.57;;;18.77;;
13592;SDS011;6867;50.998;4.250;2022-12-05T08:51:55;44.37;;;19.73;;
13592;SDS011;6867;50.998;4.250;2022-12-05T08:54:21;40.77;;;19.97;;
13592;SDS011;6867;50.998;4.250;2022-12-05T08:56:49;41.17;;;19.97;;
13592;SDS011;6867;50.998;4.250;2022-12-05T08:59:18;41.77;;;19.70;;
13592;SDS011;6867;50.998;4.250;2022-12-05T09:01:44;46.10;;;20.83;;
13592;SDS011;6867;50.998;4.250;2022-12-05T09:04:11;43.60;;;19.40;;
13592;SDS011;6867;50.998;4.250;2022-12-05T09:06:38;45.60;;;20.67;;
13592;SDS011;6867;50.998;4.250;2022-12-05T09:09:06;45.13;;;20.53;;
13592;SDS011;6867;50.998;4.250;2022-12-05T09:11:36;46.73;;;20.40;;
13592;SDS011;6867;50.998;4.250;2022-12-05T09:14:08;45.33;;;20.60;;
13592;SDS011;6867;50.998;4.250;2022-12-05T09:16:36;43.00;;;21.50;;
13592;SDS011;6867;50.998;4.250;2022-12-05T09:19:03;44.53;;;20.50;;
13592;SDS011;6867;50.998;4.250;2022-12-05T09:21:31;40.67;;;20.23;;
13592;SDS011;6867;50.998;4.250;2022-12-05T09:23:58;44.03;;;19.73;;
13592;SDS011;6867;50.998;4.250;2022-12-05T09:26:26;46.47;;;19.90;;
13592;SDS011;6867;50.998;4.250;2022-12-05T09:28:54;39.97;;;19.80;;
13592;SDS011;6867;50.998;4.250;2022-12-05T09:31:23;40.67;;;19.40;;
13592;SDS011;6867;50.998;4.250;2022-12-05T09:33:53;40.30;;;19.07;;
13592;SDS011;6867;50.998;4.250;2022-12-05T09:36:21;39.40;;;19.90;;
13592;SDS011;6867;50.998;4.250;2022-12-05T09:38:48;46.63;;;21.13;;
13592;SDS011;6867;50.998;4.250;2022-12-05T09:41:19;38.63;;;18.77;;
13592;SDS011;6867;50.998;4.250;2022-12-05T09:44:11;38.07;;;19.07;;
13592;SDS011;6867;50.998;4.250;2022-12-05T09:46:46;39.20;;;19.00;;
13592;SDS011;6867;50.998;4.250;2022-12-05T09:49:20;42.77;;;19.47;;
13592;SDS011;6867;50.998;4.250;2022-12-05T09:51:49;40.20;;;17.80;;
13592;SDS011;6867;50.998;4.250;2022-12-05T09:54:18;46.47;;;20.20;;
13592;SDS011;6867;50.998;4.250;2022-12-05T09:56:47;36.83;;;19.20;;
13592;SDS011;6867;50.998;4.250;2022-12-05T09:59:16;41.87;;;18.77;;
13592;SDS011;6867;50.998;4.250;2022-12-05T10:01:45;37.50;;;20.23;;
13592;SDS011;6867;50.998;4.250;2022-12-05T10:04:27;45.40;;;20.47;;
13592;SDS011;6867;50.998;4.250;2022-12-05T10:07:06;40.47;;;18.93;;
13592;SDS011;6867;50.998;4.250;2022-12-05T10:09:44;37.10;;;17.93;;
13592;SDS011;6867;50.998;4.250;2022-12-05T10:12:23;38.90;;;17.77;;
13592;SDS011;6867;50.998;4.250;2022-12-05T10:15:09;32.57;;;16.73;;
13592;SDS011;6867;50.998;4.250;2022-12-05T10:17:40;40.33;;;19.13;;
13592;SDS011;6867;50.998;4.250;2022-12-05T10:20:12;34.53;;;16.67;;
13592;SDS011;6867;50.998;4.250;2022-12-05T10:22:43;33.80;;;16.20;;
13592;SDS011;6867;50.998;4.250;2022-12-05T10:25:13;36.47;;;17.33;;
13592;SDS011;6867;50.998;4.250;2022-12-05T10:27:45;36.07;;;17.40;;
13592;SDS011;6867;50.998;4.250;2022-12-05T10:30:16;43.30;;;19.23;;
13592;SDS011;6867;50.998;4.250;2022-12-05T10:32:52;36.43;;;18.43;;
13592;SDS011;6867;50.998;4.250;2022-12-05T10:35:23;38.87;;;18.10;;
13592;SDS011;6867;50.998;4.250;2022-12-05T10:37:52;36.23;;;16.83;;
13592;SDS011;6867;50.998;4.250;2022-12-05T10:40:22;35.67;;;17.87;;
13592;SDS011;6867;50.998;4.250;2022-12-05T10:42:51;34.40;;;17.60;;
13592;SDS011;6867;50.998;4.250;2022-12-05T10:45:19;36.07;;;17.43;;
13592;SDS011;6867;50.998;4.250;2022-12-05T10:47:48;37.67;;;19.07;;
13592;SDS011;6867;50.998;4.250;2022-12-05T10:50:22;32.37;;;19.03;;
13592;SDS011;6867;50.998;4.250;2022-12-05T10:52:53;36.43;;;18.47;;
13592;SDS011;6867;50.998;4.250;2022-12-05T10:55:22;42.07;;;19.07;;
13592;SDS011;6867;50.998;4.250;2022-12-05T10:58:07;36.60;;;19.10;;
13592;SDS011;6867;50.998;4.250;2022-12-05T11:00:35;32.53;;;18.03;;
13592;SDS011;6867;50.998;4.250;2022-12-05T11:03:15;33.40;;;17.20;;
13592;SDS011;6867;50.998;4.250;2022-12-05T11:05:53;31.57;;;17.30;;
13592;SDS011;6867;50.998;4.250;2022-12-05T11:08:21;35.83;;;19.00;;
13592;SDS011;6867;50.998;4.250;2022-12-05T11:10:49;38.90;;;19.10;;
13592;SDS011;6867;50.998;4.250;2022-12-05T11:13:26;36.90;;;18.33;;
13592;SDS011;6867;50.998;4.250;2022-12-05T11:15:54;32.90;;;16.30;;
13592;SDS011;6867;50.998;4.250;2022-12-05T11:18:25;32.33;;;17.33;;
13592;SDS011;6867;50.998;4.250;2022-12-05T11:20:55;32.83;;;16.43;;
13592;SDS011;6867;50.998;4.250;2022-12-05T11:23:33;30.07;;;14.97;;
13592;SDS011;6867;50.998;4.250;2022-12-05T11:26:00;30.83;;;16.23;;
13592;SDS011;6867;50.998;4.250;2022-12-05T11:28:31;34.40;;;18.10;;
13592;SDS011;6867;50.998;4.250;2022-12-05T11:31:03;24.80;;;15.03;;
13592;SDS011;6867;50.998;4.250;2022-12-05T11:33:32;26.93;;;15.53;;
13592;SDS011;6867;50.998;4.250;2022-12-05T11:36:03;35.07;;;17.20;;
13592;SDS011;6867;50.998;4.250;2022-12-05T11:38:35;35.33;;;16.63;;
13592;SDS011;6867;50.998;4.250;2022-12-05T11:41:07;29.40;;;15.07;;
13592;SDS011;6867;50.998;4.250;2022-12-05T11:46:50;32.73;;;16.60;;
13592;SDS011;6867;50.998;4.250;2022-12-05T11:52:14;32.77;;;14.50;;
13592;SDS011;6867;50.998;4.250;2022-12-05T11:54:53;29.20;;;14.67;;
13592;SDS011;6867;50.998;4.250;2022-12-05T11:57:32;31.03;;;15.97;;
13592;SDS011;6867;50.998;4.250;2022-12-05T12:00:18;29.03;;;15.47;;
13592;SDS011;6867;50.998;4.250;2022-12-05T12:02:58;33.97;;;16.23;;
13592;SDS011;6867;50.998;4.250;2022-12-05T12:05:58;33.07;;;15.10;;
13592;SDS011;6867;50.998;4.250;2022-12-05T12:08:36;27.93;;;15.53;;
13592;SDS011;6867;50.998;4.250;2022-12-05T12:11:17;29.17;;;15.93;;
13592;SDS011;6867;50.998;4.250;2022-12-05T12:13:55;29.00;;;15.53;;
13592;SDS011;6867;50.998;4.250;2022-12-05T12:16:30;28.13;;;14.87;;
13592;SDS011;6867;50.998;4.250;2022-12-05T12:19:08;29.83;;;15.70;;
13592;SDS011;6867;50.998;4.250;2022-12-05T12:21:57;29.30;;;13.83;;
13592;SDS011;6867;50.998;4.250;2022-12-05T12:24:48;29.73;;;14.97;;
13592;SDS011;6867;50.998;4.250;2022-12-05T12:27:26;31.07;;;15.27;;
13592;SDS011;6867;50.998;4.250;2022-12-05T12:30:08;25.23;;;14.70;;
13592;SDS011;6867;50.998;4.250;2022-12-05T12:32:42;30.43;;;16.43;;
13592;SDS011;6867;50.998;4.250;2022-12-05T12:35:22;25.40;;;15.27;;
13592;SDS011;6867;50.998;4.250;2022-12-05T12:37:56;28.63;;;15.37;;
13592;SDS011;6867;50.998;4.250;2022-12-05T12:40:39;26.50;;;14.97;;
13592;SDS011;6867;50.998;4.250;2022-12-05T12:43:14;31.93;;;16.33;;
13592;SDS011;6867;50.998;4.250;2022-12-05T12:46:02;28.43;;;15.20;;
13592;SDS011;6867;50.998;4.250;2022-12-05T12:48:40;25.73;;;14.27;;
13592;SDS011;6867;50.998;4.250;2022-12-05T12:51:19;30.63;;;16.00;;
13592;SDS011;6867;50.998;4.250;2022-12-05T12:57:02;27.13;;;14.80;;
13592;SDS011;6867;50.998;4.250;2022-12-05T12:59:44;25.33;;;14.67;;
13592;SDS011;6867;50.998;4.250;2022-12-05T13:02:23;29.83;;;15.47;;
13592;SDS011;6867;50.998;4.250;2022-12-05T13:04:52;25.07;;;14.47;;
13592;SDS011;6867;50.998;4.250;2022-12-05T13:07:25;29.17;;;16.17;;
13592;SDS011;6867;50.998;4.250;2022-12-05T13:09:59;30.50;;;15.67;;
13592;SDS011;6867;50.998;4.250;2022-12-05T13:12:34;28.90;;;15.90;;
13592;SDS011;6867;50.998;4.250;2022-12-05T13:15:06;28.37;;;15.03;;
13592;SDS011;6867;50.998;4.250;2022-12-05T13:17:39;29.47;;;14.83;;
13592;SDS011;6867;50.998;4.250;2022-12-05T13:20:11;25.37;;;15.07;;
13592;SDS011;6867;50.998;4.250;2022-12-05T13:22:41;28.90;;;14.07;;
13592;SDS011;6867;50.998;4.250;2022-12-05T13:25:11;30.60;;;15.73;;
13592;SDS011;6867;50.998;4.250;2022-12-05T13:27:41;25.13;;;15.33;;
13592;SDS011;6867;50.998;4.250;2022-12-05T13:30:20;32.67;;;15.20;;
13592;SDS011;6867;50.998;4.250;2022-12-05T13:32:47;31.57;;;15.50;;
13592;SDS011;6867;50.998;4.250;2022-12-05T13:35:23;28.47;;;15.10;;
13592;SDS011;6867;50.998;4.250;2022-12-05T13:38:18;29.70;;;13.73;;
13592;SDS011;6867;50.998;4.250;2022-12-05T13:41:04;24.53;;;14.17;;
13592;SDS011;6867;50.998;4.250;2022-12-05T13:43:50;29.10;;;15.53;;
13592;SDS011;6867;50.998;4.250;2022-12-05T13:46:22;27.80;;;14.87;;
13592;SDS011;6867;50.998;4.250;2022-12-05T13:48:57;27.57;;;16.90;;
13592;SDS011;6867;50.998;4.250;2022-12-05T13:51:27;31.17;;;15.57;;
13592;SDS011;6867;50.998;4.250;2022-12-05T13:53:59;28.63;;;15.90;;
13592;SDS011;6867;50.998;4.250;2022-12-05T13:56:45;29.53;;;16.30;;
13592;SDS011;6867;50.998;4.250;2022-12-05T14:05:31;30.90;;;16.37;;
13592;SDS011;6867;50.998;4.250;2022-12-05T14:08:17;32.97;;;16.07;;
13592;SDS011;6867;50.998;4.250;2022-12-05T14:11:11;35.33;;;16.33;;
13592;SDS011;6867;50.998;4.250;2022-12-05T14:13:38;32.87;;;16.97;;
13592;SDS011;6867;50.998;4.250;2022-12-05T14:22:21;30.17;;;16.77;;
13592;SDS011;6867;50.998;4.250;2022-12-05T14:25:00;30.23;;;16.50;;
13592;SDS011;6867;50.998;4.250;2022-12-05T14:27:41;27.87;;;15.97;;
13592;SDS011;6867;50.998;4.250;2022-12-05T14:30:18;33.73;;;17.33;;
13592;SDS011;6867;50.998;4.250;2022-12-05T14:32:47;32.47;;;16.33;;
13592;SDS011;6867;50.998;4.250;2022-12-05T14:35:26;30.10;;;15.57;;
13592;SDS011;6867;50.998;4.250;2022-12-05T14:37:55;25.33;;;13.43;;
13592;SDS011;6867;50.998;4.250;2022-12-05T14:40:26;25.20;;;13.67;;
13592;SDS011;6867;50.998;4.250;2022-12-05T14:42:57;20.50;;;13.30;;
13592;SDS011;6867;50.998;4.250;2022-12-05T14:45:28;23.53;;;12.33;;
13592;SDS011;6867;50.998;4.250;2022-12-05T14:47:57;25.10;;;13.00;;
13592;SDS011;6867;50.998;4.250;2022-12-05T14:50:40;24.63;;;14.50;;
13592;SDS011;6867;50.998;4.250;2022-12-05T14:53:21;23.27;;;13.50;;
13592;SDS011;6867;50.998;4.250;2022-12-05T14:55:52;20.13;;;12.77;;
13592;SDS011;6867;50.998;4.250;2022-12-05T14:58:24;22.47;;;13.27;;
13592;SDS011;6867;50.998;4.250;2022-12-05T15:00:58;21.53;;;12.13;;
13592;SDS011;6867;50.998;4.250;2022-12-05T15:03:28;26.30;;;14.10;;
13592;SDS011;6867;50.998;4.250;2022-12-05T15:05:59;23.53;;;13.50;;
13592;SDS011;6867;50.998;4.250;2022-12-05T15:08:29;26.40;;;14.63;;
13592;SDS011;6867;50.998;4.250;2022-12-05T15:11:00;27.90;;;14.20;;
13592;SDS011;6867;50.998;4.250;2022-12-05T15:13:28;23.60;;;13.70;;
13592;SDS011;6867;50.998;4.250;2022-12-05T15:15:58;28.13;;;14.50;;
13592;SDS011;6867;50.998;4.250;2022-12-05T15:18:33;26.13;;;14.33;;